sensor_id;sensor_type;location;lat;lon;timestamp;temperature;humidity
59651;DHT22;45954;49.768;8.636;2023-02-15T00:01:58;3.40;99.90
59651;DHT22;45954;49.768;8.636;2023-02-15T00:04:25;3.40;99.90
59651;DHT22;45954;49.768;8.636;2023-02-15T00:07:15;3.10;99.90
59651;DHT22;45954;49.768;8.636;2023-02-15T00:09:45;2.80;99.90
59651;DHT22;45954;49.768;8.636;2023-02-15T00:12:12;3.00;99.90
59651;DHT22;45954;49.768;8.636;2023-02-15T00:14:38;3.20;99.90
59651;DHT22;45954;49.768;8.636;2023-02-15T00:17:04;2.80;99.90
59651;DHT22;45954;49.768;8.636;2023-02-15T00:19:30;2.70;99.90
59651;DHT22;45954;49.768;8.636;2023-02-15T00:21:56;2.90;99.90
59651;DHT22;45954;49.768;8.636;2023-02-15T00:24:22;3.00;99.90
59651;DHT22;45954;49.768;8.636;2023-02-15T00:26:48;2.90;99.90
59651;DHT22;45954;49.768;8.636;2023-02-15T00:29:16;2.90;99.90
59651;DHT22;45954;49.768;8.636;2023-02-15T00:31:43;2.80;99.90
59651;DHT22;45954;49.768;8.636;2023-02-15T00:34:23;3.00;99.90
59651;DHT22;45954;49.768;8.636;2023-02-15T00:36:50;3.10;99.90
59651;DHT22;45954;49.768;8.636;2023-02-15T00:39:18;2.70;99.90
59651;DHT22;45954;49.768;8.636;2023-02-15T00:41:44;2.60;99.90
59651;DHT22;45954;49.768;8.636;2023-02-15T00:44:11;2.50;99.90
59651;DHT22;45954;49.768;8.636;2023-02-15T00:46:38;2.50;99.90
59651;DHT22;45954;49.768;8.636;2023-02-15T00:49:04;2.50;99.90
59651;DHT22;45954;49.768;8.636;2023-02-15T00:51:31;2.60;99.90
59651;DHT22;45954;49.768;8.636;2023-02-15T00:53:58;2.60;99.90
59651;DHT22;45954;49.768;8.636;2023-02-15T00:56:23;2.40;99.90
59651;DHT22;45954;49.768;8.636;2023-02-15T00:58:49;2.10;99.90
59651;DHT22;45954;49.768;8.636;2023-02-15T01:01:18;2.10;99.90
59651;DHT22;45954;49.768;8.636;2023-02-15T01:03:45;2.00;99.90
59651;DHT22;45954;49.768;8.636;2023-02-15T01:06:15;2.10;99.90
59651;DHT22;45954;49.768;8.636;2023-02-15T01:08:43;2.10;99.90
59651;DHT22;45954;49.768;8.636;2023-02-15T01:11:12;2.10;99.90
59651;DHT22;45954;49.768;8.636;2023-02-15T01:13:41;2.00;99.90
59651;DHT22;45954;49.768;8.636;2023-02-15T01:16:07;1.90;99.90
59651;DHT22;45954;49.768;8.636;2023-02-15T01:18:34;2.20;99.90
59651;DHT22;45954;49.768;8.636;2023-02-15T01:21:09;2.10;99.90
59651;DHT22;45954;49.768;8.636;2023-02-15T01:23:36;1.90;99.90
59651;DHT22;45954;49.768;8.636;2023-02-15T01:26:03;1.70;99.90
59651;DHT22;45954;49.768;8.636;2023-02-15T01:28:29;1.60;99.90
59651;DHT22;45954;49.768;8.636;2023-02-15T01:30:54;1.60;99.90
59651;DHT22;45954;49.768;8.636;2023-02-15T01:33:20;1.60;99.90
59651;DHT22;45954;49.768;8.636;2023-02-15T01:35:46;1.50;99.90
59651;DHT22;45954;49.768;8.636;2023-02-15T01:38:13;1.60;99.90
59651;DHT22;45954;49.768;8.636;2023-02-15T01:40:39;1.50;99.90
59651;DHT22;45954;49.768;8.636;2023-02-15T01:43:10;1.70;99.90
59651;DHT22;45954;49.768;8.636;2023-02-15T01:45:36;1.70;99.90
59651;DHT22;45954;49.768;8.636;2023-02-15T01:50:56;1.60;99.90
59651;DHT22;45954;49.768;8.636;2023-02-15T01:53:30;1.90;99.90
59651;DHT22;45954;49.768;8.636;2023-02-15T01:56:04;2.20;99.90
59651;DHT22;45954;49.768;8.636;2023-02-15T01:58:34;2.20;99.90
59651;DHT22;45954;49.768;8.636;2023-02-15T02:01:01;2.00;99.90
59651;DHT22;45954;49.768;8.636;2023-02-15T02:03:50;2.10;99.90
59651;DHT22;45954;49.768;8.636;2023-02-15T02:06:21;2.30;99.90
59651;DHT22;45954;49.768;8.636;2023-02-15T02:08:48;2.40;99.90
59651;DHT22;45954;49.768;8.636;2023-02-15T02:11:15;2.50;99.90
59651;DHT22;45954;49.768;8.636;2023-02-15T02:13:43;2.40;99.90
59651;DHT22;45954;49.768;8.636;2023-02-15T02:16:30;2.60;99.90
59651;DHT22;45954;49.768;8.636;2023-02-15T02:25:23;2.20;99.90
59651;DHT22;45954;49.768;8.636;2023-02-15T02:34:29;2.50;99.90
59651;DHT22;45954;49.768;8.636;2023-02-15T02:37:27;2.40;99.90
59651;DHT22;45954;49.768;8.636;2023-02-15T02:40:03;2.60;99.90
59651;DHT22;45954;49.768;8.636;2023-02-15T02:42:40;2.80;99.90
59651;DHT22;45954;49.768;8.636;2023-02-15T02:45:49;2.90;99.90
59651;DHT22;45954;49.768;8.636;2023-02-15T02:48:27;3.00;99.90
59651;DHT22;45954;49.768;8.636;2023-02-15T02:50:55;3.00;99.90
59651;DHT22;45954;49.768;8.636;2023-02-15T02:53:21;2.50;99.90
59651;DHT22;45954;49.768;8.636;2023-02-15T02:56:02;2.40;99.90
59651;DHT22;45954;49.768;8.636;2023-02-15T02:58:42;2.60;99.90
59651;DHT22;45954;49.768;8.636;2023-02-15T03:03:50;2.60;99.90
59651;DHT22;45954;49.768;8.636;2023-02-15T03:06:25;2.70;99.90
59651;DHT22;45954;49.768;8.636;2023-02-15T03:09:03;2.80;99.90
59651;DHT22;45954;49.768;8.636;2023-02-15T03:11:44;2.80;99.90
59651;DHT22;45954;49.768;8.636;2023-02-15T03:14:17;2.70;99.90
59651;DHT22;45954;49.768;8.636;2023-02-15T03:16:47;2.40;99.90
59651;DHT22;45954;49.768;8.636;2023-02-15T03:19:23;2.60;99.90
59651;DHT22;45954;49.768;8.636;2023-02-15T03:21:57;2.80;99.90
59651;DHT22;45954;49.768;8.636;2023-02-15T03:25:08;2.60;99.90
59651;DHT22;45954;49.768;8.636;2023-02-15T03:27:45;2.10;99.90
59651;DHT22;45954;49.768;8.636;2023-02-15T03:30:16;2.20;99.90
59651;DHT22;45954;49.768;8.636;2023-02-15T03:32:47;2.50;99.90
59651;DHT22;45954;49.768;8.636;2023-02-15T03:35:14;2.60;99.90
59651;DHT22;45954;49.768;8.636;2023-02-15T03:38:00;2.60;99.90
59651;DHT22;45954;49.768;8.636;2023-02-15T03:40:39;2.80;99.90
59651;DHT22;45954;49.768;8.636;2023-02-15T03:49:39;2.50;99.90
59651;DHT22;45954;49.768;8.636;2023-02-15T03:52:29;2.40;99.90
59651;DHT22;45954;49.768;8.636;2023-02-15T03:54:56;2.60;99.90
59651;DHT22;45954;49.768;8.636;2023-02-15T03:57:25;2.50;99.90
59651;DHT22;45954;49.768;8.636;2023-02-15T04:00:22;2.60;99.90
59651;DHT22;45954;49.768;8.636;2023-02-15T04:05:44;2.60;99.90
59651;DHT22;45954;49.768;8.636;2023-02-15T04:08:11;2.80;99.90
59651;DHT22;45954;49.768;8.636;2023-02-15T04:10:38;2.90;99.90
59651;DHT22;45954;49.768;8.636;2023-02-15T04:13:23;3.00;99.90
59651;DHT22;45954;49.768;8.636;2023-02-15T04:15:50;2.80;99.90
59651;DHT22;45954;49.768;8.636;2023-02-15T04:18:39;2.50;99.90
59651;DHT22;45954;49.768;8.636;2023-02-15T04:21:27;2.60;99.90
59651;DHT22;45954;49.768;8.636;2023-02-15T04:24:14;2.90;99.90
59651;DHT22;45954;49.768;8.636;2023-02-15T04:27:00;3.00;99.90
59651;DHT22;45954;49.768;8.636;2023-02-15T04:29:27;3.10;99.90
59651;DHT22;45954;49.768;8.636;2023-02-15T04:31:55;3.20;99.90
59651;DHT22;45954;49.768;8.636;2023-02-15T04:34:22;3.10;99.90
59651;DHT22;45954;49.768;8.636;2023-02-15T04:36:48;3.00;99.90
59651;DHT22;45954;49.768;8.636;2023-02-15T04:39:17;3.10;99.90
59651;DHT22;45954;49.768;8.636;2023-02-15T04:41:44;3.10;99.90
59651;DHT22;45954;49.768;8.636;2023-02-15T04:44:11;3.00;99.90
59651;DHT22;45954;49.768;8.636;2023-02-15T04:46:37;3.00;99.90
59651;DHT22;45954;49.768;8.636;2023-02-15T04:49:03;2.80;99.90
59651;DHT22;45954;49.768;8.636;2023-02-15T04:51:29;3.00;99.90
59651;DHT22;45954;49.768;8.636;2023-02-15T04:53:55;3.00;99.90
59651;DHT22;45954;49.768;8.636;2023-02-15T04:56:22;3.00;99.90
59651;DHT22;45954;49.768;8.636;2023-02-15T04:58:48;3.10;99.90
59651;DHT22;45954;49.768;8.636;2023-02-15T05:01:14;3.10;99.90
59651;DHT22;45954;49.768;8.636;2023-02-15T05:03:40;3.10;99.90
59651;DHT22;45954;49.768;8.636;2023-02-15T05:06:06;2.90;99.90
59651;DHT22;45954;49.768;8.636;2023-02-15T05:08:32;2.90;99.90
59651;DHT22;45954;49.768;8.636;2023-02-15T05:10:58;2.80;99.90
59651;DHT22;45954;49.768;8.636;2023-02-15T05:13:24;2.90;99.90
59651;DHT22;45954;49.768;8.636;2023-02-15T05:15:54;2.90;99.90
59651;DHT22;45954;49.768;8.636;2023-02-15T05:18:21;2.80;99.90
59651;DHT22;45954;49.768;8.636;2023-02-15T05:20:48;2.50;99.90
59651;DHT22;45954;49.768;8.636;2023-02-15T05:23:15;2.60;99.90
59651;DHT22;45954;49.768;8.636;2023-02-15T05:25:41;2.80;99.90
59651;DHT22;45954;49.768;8.636;2023-02-15T05:28:31;2.90;99.90
59651;DHT22;45954;49.768;8.636;2023-02-15T05:31:05;2.80;99.90
59651;DHT22;45954;49.768;8.636;2023-02-15T05:33:34;2.90;99.90
59651;DHT22;45954;49.768;8.636;2023-02-15T05:36:01;2.90;99.90
59651;DHT22;45954;49.768;8.636;2023-02-15T05:38:27;3.00;99.90
59651;DHT22;45954;49.768;8.636;2023-02-15T05:40:54;3.00;99.90
59651;DHT22;45954;49.768;8.636;2023-02-15T05:43:20;3.10;99.90
59651;DHT22;45954;49.768;8.636;2023-02-15T05:45:48;3.10;99.90
59651;DHT22;45954;49.768;8.636;2023-02-15T05:48:19;3.10;99.90
59651;DHT22;45954;49.768;8.636;2023-02-15T05:50:56;3.10;99.90
59651;DHT22;45954;49.768;8.636;2023-02-15T05:53:22;3.20;99.90
59651;DHT22;45954;49.768;8.636;2023-02-15T05:55:48;3.10;99.90
59651;DHT22;45954;49.768;8.636;2023-02-15T05:58:14;2.70;99.90
59651;DHT22;45954;49.768;8.636;2023-02-15T06:00:40;2.50;99.90
59651;DHT22;45954;49.768;8.636;2023-02-15T06:03:06;2.70;99.90
59651;DHT22;45954;49.768;8.636;2023-02-15T06:05:32;2.90;99.90
59651;DHT22;45954;49.768;8.636;2023-02-15T06:07:57;2.90;99.90
59651;DHT22;45954;49.768;8.636;2023-02-15T06:10:23;2.70;99.90
59651;DHT22;45954;49.768;8.636;2023-02-15T06:12:49;2.50;99.90
59651;DHT22;45954;49.768;8.636;2023-02-15T06:15:15;2.60;99.90
59651;DHT22;45954;49.768;8.636;2023-02-15T06:17:42;2.90;99.90
59651;DHT22;45954;49.768;8.636;2023-02-15T06:20:09;3.00;99.90
59651;DHT22;45954;49.768;8.636;2023-02-15T06:22:35;3.10;99.90
59651;DHT22;45954;49.768;8.636;2023-02-15T06:25:01;3.00;99.90
59651;DHT22;45954;49.768;8.636;2023-02-15T06:27:27;2.90;99.90
59651;DHT22;45954;49.768;8.636;2023-02-15T06:29:53;3.00;99.90
59651;DHT22;45954;49.768;8.636;2023-02-15T06:32:19;3.10;99.90
59651;DHT22;45954;49.768;8.636;2023-02-15T06:34:45;3.20;99.90
59651;DHT22;45954;49.768;8.636;2023-02-15T06:37:11;3.20;99.90
59651;DHT22;45954;49.768;8.636;2023-02-15T06:39:37;3.20;99.90
59651;DHT22;45954;49.768;8.636;2023-02-15T06:42:03;3.30;99.90
59651;DHT22;45954;49.768;8.636;2023-02-15T06:44:28;3.30;99.90
59651;DHT22;45954;49.768;8.636;2023-02-15T06:46:54;3.20;99.90
59651;DHT22;45954;49.768;8.636;2023-02-15T06:49:20;2.90;99.90
59651;DHT22;45954;49.768;8.636;2023-02-15T06:51:46;2.90;99.90
59651;DHT22;45954;49.768;8.636;2023-02-15T06:54:12;3.00;99.90
59651;DHT22;45954;49.768;8.636;2023-02-15T06:56:37;3.00;99.90
59651;DHT22;45954;49.768;8.636;2023-02-15T06:59:04;2.90;99.90
59651;DHT22;45954;49.768;8.636;2023-02-15T07:01:30;2.90;99.90
59651;DHT22;45954;49.768;8.636;2023-02-15T07:03:55;3.00;99.90
59651;DHT22;45954;49.768;8.636;2023-02-15T07:06:21;2.80;99.90
59651;DHT22;45954;49.768;8.636;2023-02-15T07:08:47;2.80;99.90
59651;DHT22;45954;49.768;8.636;2023-02-15T07:11:13;3.00;99.90
59651;DHT22;45954;49.768;8.636;2023-02-15T07:13:57;2.90;99.90
59651;DHT22;45954;49.768;8.636;2023-02-15T07:16:23;3.00;99.90
59651;DHT22;45954;49.768;8.636;2023-02-15T07:18:49;3.10;99.90
59651;DHT22;45954;49.768;8.636;2023-02-15T07:21:15;3.20;99.90
59651;DHT22;45954;49.768;8.636;2023-02-15T07:23:40;3.00;99.90
59651;DHT22;45954;49.768;8.636;2023-02-15T07:26:07;3.10;99.90
59651;DHT22;45954;49.768;8.636;2023-02-15T07:28:34;3.20;99.90
59651;DHT22;45954;49.768;8.636;2023-02-15T07:31:04;3.10;99.90
59651;DHT22;45954;49.768;8.636;2023-02-15T07:33:31;3.30;99.90
59651;DHT22;45954;49.768;8.636;2023-02-15T07:36:00;3.30;99.90
59651;DHT22;45954;49.768;8.636;2023-02-15T07:38:33;3.40;99.90
59651;DHT22;45954;49.768;8.636;2023-02-15T07:41:03;3.40;99.90
59651;DHT22;45954;49.768;8.636;2023-02-15T07:43:37;3.40;99.90
59651;DHT22;45954;49.768;8.636;2023-02-15T07:48:34;3.10;99.90
59651;DHT22;45954;49.768;8.636;2023-02-15T07:51:01;2.80;99.90
59651;DHT22;45954;49.768;8.636;2023-02-15T07:53:28;2.80;99.90
59651;DHT22;45954;49.768;8.636;2023-02-15T07:55:58;3.00;99.90
59651;DHT22;45954;49.768;8.636;2023-02-15T07:58:25;3.00;99.90
59651;DHT22;45954;49.768;8.636;2023-02-15T08:01:12;2.70;99.90
59651;DHT22;45954;49.768;8.636;2023-02-15T08:03:39;3.00;99.90
59651;DHT22;45954;49.768;8.636;2023-02-15T08:06:05;3.10;99.90
59651;DHT22;45954;49.768;8.636;2023-02-15T08:08:33;3.10;99.90
59651;DHT22;45954;49.768;8.636;2023-02-15T08:11:04;3.00;99.90
59651;DHT22;45954;49.768;8.636;2023-02-15T08:14:03;2.90;99.90
59651;DHT22;45954;49.768;8.636;2023-02-15T08:16:49;3.20;99.90
59651;DHT22;45954;49.768;8.636;2023-02-15T08:21:53;3.40;99.90
59651;DHT22;45954;49.768;8.636;2023-02-15T08:24:24;3.30;99.90
59651;DHT22;45954;49.768;8.636;2023-02-15T08:26:52;3.10;99.90
59651;DHT22;45954;49.768;8.636;2023-02-15T08:29:21;3.10;99.90
59651;DHT22;45954;49.768;8.636;2023-02-15T08:31:49;2.80;99.90
59651;DHT22;45954;49.768;8.636;2023-02-15T08:34:19;2.70;99.90
59651;DHT22;45954;49.768;8.636;2023-02-15T08:36:46;2.90;99.90
59651;DHT22;45954;49.768;8.636;2023-02-15T08:39:14;3.00;99.90
59651;DHT22;45954;49.768;8.636;2023-02-15T08:41:43;3.20;99.90
59651;DHT22;45954;49.768;8.636;2023-02-15T08:44:10;3.10;99.90
59651;DHT22;45954;49.768;8.636;2023-02-15T08:46:39;3.00;99.90
59651;DHT22;45954;49.768;8.636;2023-02-15T08:49:07;3.10;99.90
59651;DHT22;45954;49.768;8.636;2023-02-15T08:51:36;3.30;99.90
59651;DHT22;45954;49.768;8.636;2023-02-15T08:54:10;3.50;99.90
59651;DHT22;45954;49.768;8.636;2023-02-15T08:56:40;3.30;99.90
59651;DHT22;45954;49.768;8.636;2023-02-15T08:59:13;3.20;99.90
59651;DHT22;45954;49.768;8.636;2023-02-15T09:01:42;3.40;99.90
59651;DHT22;45954;49.768;8.636;2023-02-15T09:04:09;3.10;99.90
59651;DHT22;45954;49.768;8.636;2023-02-15T09:06:37;2.60;99.90
59651;DHT22;45954;49.768;8.636;2023-02-15T09:09:04;2.70;99.90
59651;DHT22;45954;49.768;8.636;2023-02-15T09:11:34;2.80;99.90
59651;DHT22;45954;49.768;8.636;2023-02-15T09:14:05;2.90;99.90
59651;DHT22;45954;49.768;8.636;2023-02-15T09:16:35;2.80;99.90
59651;DHT22;45954;49.768;8.636;2023-02-15T09:19:03;3.00;99.90
59651;DHT22;45954;49.768;8.636;2023-02-15T09:21:31;3.30;99.90
59651;DHT22;45954;49.768;8.636;2023-02-15T09:24:05;3.40;99.90
59651;DHT22;45954;49.768;8.636;2023-02-15T09:26:35;3.50;99.90
59651;DHT22;45954;49.768;8.636;2023-02-15T09:29:03;3.60;99.90
59651;DHT22;45954;49.768;8.636;2023-02-15T09:31:37;3.70;99.90
59651;DHT22;45954;49.768;8.636;2023-02-15T09:34:10;3.80;99.90
59651;DHT22;45954;49.768;8.636;2023-02-15T09:36:39;3.80;99.90
59651;DHT22;45954;49.768;8.636;2023-02-15T09:39:15;3.50;99.90
59651;DHT22;45954;49.768;8.636;2023-02-15T09:42:32;3.60;99.90
59651;DHT22;45954;49.768;8.636;2023-02-15T09:45:30;3.80;99.90
59651;DHT22;45954;49.768;8.636;2023-02-15T09:48:32;4.00;99.90
59651;DHT22;45954;49.768;8.636;2023-02-15T09:54:06;4.10;99.90
59651;DHT22;45954;49.768;8.636;2023-02-15T09:56:49;3.90;99.90
59651;DHT22;45954;49.768;8.636;2023-02-15T09:59:45;3.90;99.90
59651;DHT22;45954;49.768;8.636;2023-02-15T10:06:03;2.90;99.90
59651;DHT22;45954;49.768;8.636;2023-02-15T10:08:47;3.10;99.90
59651;DHT22;45954;49.768;8.636;2023-02-15T10:20:33;3.40;99.90
59651;DHT22;45954;49.768;8.636;2023-02-15T10:23:27;3.50;99.90
59651;DHT22;45954;49.768;8.636;2023-02-15T10:26:18;3.30;99.90
59651;DHT22;45954;49.768;8.636;2023-02-15T10:34:19;3.20;99.90
59651;DHT22;45954;49.768;8.636;2023-02-15T10:45:23;3.80;99.90
59651;DHT22;45954;49.768;8.636;2023-02-15T10:50:51;3.70;99.90
59651;DHT22;45954;49.768;8.636;2023-02-15T10:56:28;3.60;99.90
59651;DHT22;45954;49.768;8.636;2023-02-15T11:01:48;3.30;99.90
59651;DHT22;45954;49.768;8.636;2023-02-15T11:04:34;3.30;99.90
59651;DHT22;45954;49.768;8.636;2023-02-15T11:07:20;3.30;99.90
59651;DHT22;45954;49.768;8.636;2023-02-15T11:12:57;3.40;99.90
59651;DHT22;45954;49.768;8.636;2023-02-15T11:15:45;3.70;99.90
59651;DHT22;45954;49.768;8.636;2023-02-15T11:18:25;3.80;99.90
59651;DHT22;45954;49.768;8.636;2023-02-15T11:21:05;3.60;99.90
59651;DHT22;45954;49.768;8.636;2023-02-15T11:23:41;3.30;99.90
59651;DHT22;45954;49.768;8.636;2023-02-15T11:29:41;3.50;99.90
59651;DHT22;45954;49.768;8.636;2023-02-15T11:32:38;3.40;99.90
59651;DHT22;45954;49.768;8.636;2023-02-15T11:37:58;4.00;99.90
59651;DHT22;45954;49.768;8.636;2023-02-15T11:40:33;3.80;99.90
59651;DHT22;45954;49.768;8.636;2023-02-15T11:43:10;4.10;99.90
59651;DHT22;45954;49.768;8.636;2023-02-15T11:45:42;3.90;99.90
59651;DHT22;45954;49.768;8.636;2023-02-15T11:48:13;3.70;99.90
59651;DHT22;45954;49.768;8.636;2023-02-15T11:50:41;3.50;99.90
59651;DHT22;45954;49.768;8.636;2023-02-15T11:53:20;3.30;99.90
59651;DHT22;45954;49.768;8.636;2023-02-15T11:55:50;3.50;99.90
59651;DHT22;45954;49.768;8.636;2023-02-15T12:04:04;3.70;99.90
59651;DHT22;45954;49.768;8.636;2023-02-15T12:06:49;3.70;99.90
59651;DHT22;45954;49.768;8.636;2023-02-15T12:09:42;3.70;99.90
59651;DHT22;45954;49.768;8.636;2023-02-15T12:12:24;3.40;99.90
59651;DHT22;45954;49.768;8.636;2023-02-15T12:15:00;3.60;99.90
59651;DHT22;45954;49.768;8.636;2023-02-15T12:17:40;3.90;99.90
59651;DHT22;45954;49.768;8.636;2023-02-15T12:22:49;4.30;99.90
59651;DHT22;45954;49.768;8.636;2023-02-15T12:25:42;4.50;99.90
59651;DHT22;45954;49.768;8.636;2023-02-15T12:28:39;4.70;99.90
59651;DHT22;45954;49.768;8.636;2023-02-15T12:34:22;4.40;99.90
59651;DHT22;45954;49.768;8.636;2023-02-15T12:36:56;4.10;99.90
59651;DHT22;45954;49.768;8.636;2023-02-15T12:39:30;4.30;99.90
59651;DHT22;45954;49.768;8.636;2023-02-15T12:42:04;4.10;99.90
59651;DHT22;45954;49.768;8.636;2023-02-15T12:44:35;4.30;99.90
59651;DHT22;45954;49.768;8.636;2023-02-15T12:47:20;4.10;99.90
59651;DHT22;45954;49.768;8.636;2023-02-15T12:52:48;4.30;99.90
59651;DHT22;45954;49.768;8.636;2023-02-15T12:55:26;4.70;99.90
59651;DHT22;45954;49.768;8.636;2023-02-15T12:58:06;4.40;99.90
59651;DHT22;45954;49.768;8.636;2023-02-15T13:00:46;4.30;99.90
59651;DHT22;45954;49.768;8.636;2023-02-15T13:03:18;4.10;99.90
59651;DHT22;45954;49.768;8.636;2023-02-15T13:05:51;4.10;99.90
59651;DHT22;45954;49.768;8.636;2023-02-15T13:08:28;4.20;99.90
59651;DHT22;45954;49.768;8.636;2023-02-15T13:11:09;3.90;99.90
59651;DHT22;45954;49.768;8.636;2023-02-15T13:13:51;4.00;99.90
59651;DHT22;45954;49.768;8.636;2023-02-15T13:16:36;4.20;99.90
59651;DHT22;45954;49.768;8.636;2023-02-15T13:19:19;4.30;99.90
59651;DHT22;45954;49.768;8.636;2023-02-15T13:21:55;4.00;99.90
59651;DHT22;45954;49.768;8.636;2023-02-15T13:24:36;4.10;99.90
59651;DHT22;45954;49.768;8.636;2023-02-15T13:27:07;4.40;99.90
59651;DHT22;45954;49.768;8.636;2023-02-15T13:29:38;4.50;99.90
59651;DHT22;45954;49.768;8.636;2023-02-15T13:35:01;4.10;99.90
59651;DHT22;45954;49.768;8.636;2023-02-15T13:40:33;4.60;99.90
59651;DHT22;45954;49.768;8.636;2023-02-15T13:49:41;4.90;99.90
59651;DHT22;45954;49.768;8.636;2023-02-15T13:52:27;5.00;99.90
59651;DHT22;45954;49.768;8.636;2023-02-15T14:15:22;5.20;99.90
59651;DHT22;45954;49.768;8.636;2023-02-15T14:23:52;5.60;99.90
59651;DHT22;45954;49.768;8.636;2023-02-15T14:26:53;5.60;99.90
59651;DHT22;45954;49.768;8.636;2023-02-15T14:30:02;5.40;99.90
59651;DHT22;45954;49.768;8.636;2023-02-15T14:32:43;4.80;99.90
59651;DHT22;45954;49.768;8.636;2023-02-15T14:35:18;5.10;99.90
59651;DHT22;45954;49.768;8.636;2023-02-15T14:37:58;5.00;99.90
59651;DHT22;45954;49.768;8.636;2023-02-15T14:47:18;4.40;99.90
59651;DHT22;45954;49.768;8.636;2023-02-15T14:49:50;4.90;99.90
59651;DHT22;45954;49.768;8.636;2023-02-15T14:52:16;4.90;99.90
59651;DHT22;45954;49.768;8.636;2023-02-15T15:02:39;4.50;99.90
59651;DHT22;45954;49.768;8.636;2023-02-15T15:05:08;4.70;99.90
59651;DHT22;45954;49.768;8.636;2023-02-15T15:07:57;4.50;99.90
59651;DHT22;45954;49.768;8.636;2023-02-15T15:10:54;4.80;99.90
59651;DHT22;45954;49.768;8.636;2023-02-15T15:15:57;4.30;99.90
59651;DHT22;45954;49.768;8.636;2023-02-15T15:19:00;4.10;99.90
59651;DHT22;45954;49.768;8.636;2023-02-15T15:41:47;4.10;99.90
59651;DHT22;45954;49.768;8.636;2023-02-15T15:50:26;4.70;99.90
59651;DHT22;45954;49.768;8.636;2023-02-15T15:52:59;4.80;99.90
59651;DHT22;45954;49.768;8.636;2023-02-15T15:55:30;4.70;99.90
59651;DHT22;45954;49.768;8.636;2023-02-15T15:58:03;4.40;99.90
59651;DHT22;45954;49.768;8.636;2023-02-15T16:00:41;4.50;99.90
59651;DHT22;45954;49.768;8.636;2023-02-15T16:03:35;4.40;99.90
59651;DHT22;45954;49.768;8.636;2023-02-15T16:06:01;4.30;99.90
59651;DHT22;45954;49.768;8.636;2023-02-15T16:11:24;4.10;99.90
59651;DHT22;45954;49.768;8.636;2023-02-15T16:13:52;4.00;99.90
59651;DHT22;45954;49.768;8.636;2023-02-15T16:16:28;4.00;99.90
59651;DHT22;45954;49.768;8.636;2023-02-15T16:18:58;3.90;99.90
59651;DHT22;45954;49.768;8.636;2023-02-15T16:21:35;4.00;99.90
59651;DHT22;45954;49.768;8.636;2023-02-15T16:24:12;4.10;99.90
59651;DHT22;45954;49.768;8.636;2023-02-15T16:29:36;4.00;99.90
59651;DHT22;45954;49.768;8.636;2023-02-15T16:32:05;3.80;99.90
59651;DHT22;45954;49.768;8.636;2023-02-15T16:34:58;3.70;99.90
59651;DHT22;45954;49.768;8.636;2023-02-15T16:37:33;3.90;99.90
59651;DHT22;45954;49.768;8.636;2023-02-15T16:40:00;3.80;99.90
59651;DHT22;45954;49.768;8.636;2023-02-15T16:42:26;3.80;99.90
59651;DHT22;45954;49.768;8.636;2023-02-15T16:45:12;4.00;99.90
59651;DHT22;45954;49.768;8.636;2023-02-15T16:47:43;4.10;99.90
59651;DHT22;45954;49.768;8.636;2023-02-15T16:50:25;4.00;99.90
59651;DHT22;45954;49.768;8.636;2023-02-15T16:52:57;4.10;99.90
59651;DHT22;45954;49.768;8.636;2023-02-15T16:55:39;3.90;99.90
59651;DHT22;45954;49.768;8.636;2023-02-15T16:58:15;3.80;99.90
59651;DHT22;45954;49.768;8.636;2023-02-15T17:00:42;3.90;99.90
59651;DHT22;45954;49.768;8.636;2023-02-15T17:05:53;3.70;99.90
59651;DHT22;45954;49.768;8.636;2023-02-15T17:13:26;3.70;99.90
59651;DHT22;45954;49.768;8.636;2023-02-15T17:18:27;3.50;99.90
59651;DHT22;45954;49.768;8.636;2023-02-15T17:20:59;3.70;99.90
59651;DHT22;45954;49.768;8.636;2023-02-15T17:23:43;3.70;99.90
59651;DHT22;45954;49.768;8.636;2023-02-15T17:26:24;3.80;99.90
59651;DHT22;45954;49.768;8.636;2023-02-15T17:28:56;4.00;99.90
59651;DHT22;45954;49.768;8.636;2023-02-15T17:31:32;4.10;99.90
59651;DHT22;45954;49.768;8.636;2023-02-15T17:34:02;4.00;99.90
59651;DHT22;45954;49.768;8.636;2023-02-15T17:36:30;3.90;99.90
59651;DHT22;45954;49.768;8.636;2023-02-15T17:41:33;4.20;99.90
59651;DHT22;45954;49.768;8.636;2023-02-15T17:44:01;4.10;99.90
59651;DHT22;45954;49.768;8.636;2023-02-15T17:46:33;4.10;99.90
59651;DHT22;45954;49.768;8.636;2023-02-15T17:49:02;4.00;99.90
59651;DHT22;45954;49.768;8.636;2023-02-15T17:51:28;4.00;99.90
59651;DHT22;45954;49.768;8.636;2023-02-15T17:53:54;4.30;99.90
59651;DHT22;45954;49.768;8.636;2023-02-15T17:56:39;4.50;99.90
59651;DHT22;45954;49.768;8.636;2023-02-15T17:59:05;4.30;99.90
59651;DHT22;45954;49.768;8.636;2023-02-15T18:01:43;4.40;99.90
59651;DHT22;45954;49.768;8.636;2023-02-15T18:04:32;4.50;99.90
59651;DHT22;45954;49.768;8.636;2023-02-15T18:07:18;4.30;99.90
59651;DHT22;45954;49.768;8.636;2023-02-15T18:10:15;4.00;99.90
59651;DHT22;45954;49.768;8.636;2023-02-15T18:13:00;3.80;99.90
59651;DHT22;45954;49.768;8.636;2023-02-15T18:15:27;4.10;99.90
59651;DHT22;45954;49.768;8.636;2023-02-15T18:17:54;4.30;99.90
59651;DHT22;45954;49.768;8.636;2023-02-15T18:20:24;4.30;99.90
59651;DHT22;45954;49.768;8.636;2023-02-15T18:22:53;4.30;99.90
59651;DHT22;45954;49.768;8.636;2023-02-15T18:25:21;4.10;99.90
59651;DHT22;45954;49.768;8.636;2023-02-15T18:27:50;4.30;99.90
59651;DHT22;45954;49.768;8.636;2023-02-15T18:30:20;4.50;99.90
59651;DHT22;45954;49.768;8.636;2023-02-15T18:32:51;4.60;99.90
59651;DHT22;45954;49.768;8.636;2023-02-15T18:35:21;4.60;99.90
59651;DHT22;45954;49.768;8.636;2023-02-15T18:37:51;4.60;99.90
59651;DHT22;45954;49.768;8.636;2023-02-15T18:40:25;4.70;99.90
59651;DHT22;45954;49.768;8.636;2023-02-15T18:42:52;4.70;99.90
59651;DHT22;45954;49.768;8.636;2023-02-15T18:45:27;4.70;99.90
59651;DHT22;45954;49.768;8.636;2023-02-15T18:47:56;4.70;99.90
59651;DHT22;45954;49.768;8.636;2023-02-15T18:50:24;4.70;99.90
59651;DHT22;45954;49.768;8.636;2023-02-15T18:52:52;4.50;99.90
59651;DHT22;45954;49.768;8.636;2023-02-15T18:57:49;4.50;99.90
59651;DHT22;45954;49.768;8.636;2023-02-15T19:00:22;4.50;99.90
59651;DHT22;45954;49.768;8.636;2023-02-15T19:02:57;4.30;99.90
59651;DHT22;45954;49.768;8.636;2023-02-15T19:05:26;4.50;99.90
59651;DHT22;45954;49.768;8.636;2023-02-15T19:07:54;4.60;99.90
59651;DHT22;45954;49.768;8.636;2023-02-15T19:10:24;4.60;99.90
59651;DHT22;45954;49.768;8.636;2023-02-15T19:12:52;4.70;99.90
59651;DHT22;45954;49.768;8.636;2023-02-15T19:15:21;4.70;99.90
59651;DHT22;45954;49.768;8.636;2023-02-15T19:17:49;4.80;99.90
59651;DHT22;45954;49.768;8.636;2023-02-15T19:20:19;4.80;99.90
59651;DHT22;45954;49.768;8.636;2023-02-15T19:22:50;4.70;99.90
59651;DHT22;45954;49.768;8.636;2023-02-15T19:25:25;4.70;99.90
59651;DHT22;45954;49.768;8.636;2023-02-15T19:27:54;4.70;99.90
59651;DHT22;45954;49.768;8.636;2023-02-15T19:30:27;4.70;99.90
59651;DHT22;45954;49.768;8.636;2023-02-15T19:32:55;4.50;99.90
59651;DHT22;45954;49.768;8.636;2023-02-15T19:35:29;4.60;99.90
59651;DHT22;45954;49.768;8.636;2023-02-15T19:37:59;4.40;99.90
59651;DHT22;45954;49.768;8.636;2023-02-15T19:40:29;4.40;99.90